Time;durP1;ratioP1;P1;durP2;ratioP2;P2;SDS_P1;SDS_P2;PMS_P1;PMS_P2;Temp;Humidity;BMP_temperature;BMP_pressure;BME280_temperature;BME280_humidity;BME280_pressure;Samples;Min_cycle;Max_cycle;Signal;HPM_P1;HPM_P2
2023/02/28 09:18:43;;;;;;;;;;;;;;;2.49;52.34;100798.28;912712;64;19991;-81
2023/02/28 09:19:47;;;;;;;;;;;;;;;2.43;51.85;100795.06;1086724;54;20559;-82
2023/02/28 09:20:50;;;;;;;;;;;;;;;2.55;51.56;100797.09;1087108;54;19951;-81
2023/02/28 09:21:53;;;;;;;;;;;;;;;2.55;51.36;100788.34;1087406;54;19947;-81
2023/02/28 09:22:55;;;;;;;;;;;;;;;2.58;51.12;100794.31;1087448;54;20307;-81
2023/02/28 09:23:58;;;;;;;;;;;;;;;2.56;51.44;100788.25;1087369;54;19954;-82
2023/02/28 09:25:02;;;;;;;;;;;;;;;2.58;51.37;100793.47;1087290;54;20713;-82
2023/02/28 09:26:04;;;;;;;;;;;;;;;2.76;51.33;100799.59;1087364;54;19950;-81
2023/02/28 09:27:08;;;;;;;;;;;;;;;2.79;50.61;100791.53;1087243;54;20480;-82
2023/02/28 09:28:09;;;;;;;;;;;;;;;2.72;50.59;100798.91;1087035;54;19951;-83
2023/02/28 09:29:16;;;;;;;;;;;;;;;2.63;50.66;100792.31;1087472;54;20674;-82
2023/02/28 09:30:20;;;;;;;;;;;;;;;2.73;51.14;100803.25;1087433;54;19953;-81
2023/02/28 09:31:26;;;;;;;;;;;;;;;2.97;50.64;100795.91;1087104;54;19946;-81
2023/02/28 09:32:29;;;;;;;;;;;;;;;3.27;50.61;100795.28;1087701;54;19994;-80
2023/02/28 09:33:31;;;;;;;;;;;;;;;3.34;49.53;100797.59;1087900;54;19950;-82
2023/02/28 09:34:38;;;;;;;;;;;;;;;3.24;49.62;100789.28;1087699;54;19954;-82
2023/02/28 09:35:39;;;;;;;;;;;;;;;3.44;49.83;100793.53;1087729;54;19967;-81
2023/02/28 09:36:44;;;;;;;;;;;;;;;3.55;49.23;100793.81;1086755;54;20006;-81
2023/02/28 09:37:46;;;;;;;;;;;;;;;3.67;49.05;100788.81;1088324;46;19947;-81
2023/02/28 09:38:51;;;;;;;;;;;;;;;3.59;48.51;100789.22;1087940;54;19951;-82
2023/02/28 09:39:55;;;;;;;;;;;;;;;3.45;48.49;100797.88;1087642;54;19942;-82
2023/02/28 09:40:57;;;;;;;;;;;;;;;3.40;48.61;100795.50;1087986;54;19954;-81
2023/02/28 09:42:01;;;;;;;;;;;;;;;3.34;48.62;100789.66;1088076;54;19942;-81
2023/02/28 09:43:05;;;;;;;;;;;;;;;3.04;49.18;100787.66;1087930;54;19943;-81
2023/02/28 09:44:13;;;;;;;;;;;;;;;3.06;49.74;100804.28;1087684;54;19991;-82
2023/02/28 09:45:22;;;;;;;;;;;;;;;3.12;49.39;100793.41;1087584;54;19943;-81
2023/02/28 09:46:32;;;;;;;;;;;;;;;3.26;49.18;100800.63;1087486;54;19974;-81
2023/02/28 09:47:37;;;;;;;;;;;;;;;3.45;48.69;100799.69;1087704;54;19957;-81
2023/02/28 09:48:42;;;;;;;;;;;;;;;3.50;48.47;100793.19;1087782;54;20349;-81
2023/02/28 09:49:49;;;;;;;;;;;;;;;3.40;48.61;100798.13;1087847;54;19994;-81
2023/02/28 09:50:52;;;;;;;;;;;;;;;3.38;48.41;100799.16;1088096;54;19945;-82
2023/02/28 09:52:00;;;;;;;;;;;;;;;3.35;48.61;100804.59;1087912;54;19942;-82
2023/02/28 09:53:06;;;;;;;;;;;;;;;3.35;48.96;100799.31;1089473;39;20475;-81
2023/02/28 09:54:11;;;;;;;;;;;;;;;3.41;48.55;100798.97;1087780;54;19943;-81
2023/02/28 09:55:24;;;;;;;;;;;;;;;3.40;48.39;100802.56;1088184;39;20428;-82
2023/02/28 09:56:28;;;;;;;;;;;;;;;3.41;48.22;100798.97;1088777;31;20567;-82
2023/02/28 09:57:35;;;;;;;;;;;;;;;3.49;48.37;100795.94;1087894;54;19942;-81
2023/02/28 09:58:40;;;;;;;;;;;;;;;3.50;48.23;100793.19;1087581;54;19951;-82
2023/02/28 09:59:53;;;;;;;;;;;;;;;3.46;48.46;100796.97;1087771;54;19954;-81
2023/02/28 10:01:02;;;;;;;;;;;;;;;3.61;48.30;100799.72;1086418;54;19958;-80
2023/02/28 10:02:13;;;;;;;;;;;;;;;3.71;47.82;100807.09;1086703;54;19973;-82
2023/02/28 10:03:32;;;;;;;;;;;;;;;3.62;47.76;100799.66;1086355;54;19962;-83
2023/02/28 10:04:54;;;;;;;;;;;;;;;3.81;47.88;100796.84;1086439;54;19982;-81
2023/02/28 10:06:03;;;;;;;;;;;;;;;3.89;47.68;100793.81;1087515;54;19951;-81
2023/02/28 10:07:19;;;;;;;;;;;;;;;3.80;47.71;100799.59;1087895;54;19943;-81
2023/02/28 10:08:25;;;;;;;;;;;;;;;3.61;47.75;100800.59;1087069;54;19962;-81
2023/02/28 10:09:32;;;;;;;;;;;;;;;3.39;48.61;100812.28;1087073;54;19942;-82
2023/02/28 10:10:38;;;;;;;;;;;;;;;3.22;48.83;100809.66;1087430;54;19938;-81
2023/02/28 10:11:42;;;;;;;;;;;;;;;3.11;49.05;100804.94;1087793;54;19946;-82
2023/02/28 10:12:45;;;;;;;;;;;;;;;3.21;49.19;100808.78;1088289;39;20725;-81
2023/02/28 10:13:55;;;;;;;;;;;;;;;3.39;48.82;100809.63;1087839;54;19934;-83
2023/02/28 10:15:02;;;;;;;;;;;;;;;3.35;48.51;100804.59;1087214;54;19954;-81
2023/02/28 10:16:08;;;;;;;;;;;;;;;3.33;48.45;100817.03;1086965;54;19956;-81
2023/02/28 10:17:13;;;;;;;;;;;;;;;3.38;48.39;100799.16;1087422;54;19998;-83
2023/02/28 10:18:19;;;;;;;;;;;;;;;3.53;48.19;100808.91;1087153;54;19946;-81
2023/02/28 10:19:27;;;;;;;;;;;;;;;3.80;48.02;100805.72;1086116;39;20456;-80
2023/02/28 10:20:33;;;;;;;;;;;;;;;3.65;47.85;100810.03;1087571;54;19950;-82
2023/02/28 10:21:39;;;;;;;;;;;;;;;3.57;48.08;100804.31;1087631;54;19978;-82
2023/02/28 10:22:49;;;;;;;;;;;;;;;3.62;48.21;100806.72;1087717;54;19950;-81
2023/02/28 10:24:04;;;;;;;;;;;;;;;3.56;47.86;100800.81;1087695;54;19942;-80
2023/02/28 10:25:18;;;;;;;;;;;;;;;3.62;48.02;100802.28;1086408;54;19947;-82
2023/02/28 10:26:23;;;;;;;;;;;;;;;3.73;47.66;100801.72;1090072;39;20184;-81
2023/02/28 10:27:25;;;;;;;;;;;;;;;3.55;47.71;100799.13;1087411;54;19946;-81
2023/02/28 10:28:31;;;;;;;;;;;;;;;3.42;48.50;100808.63;1087875;54;19938;-83
2023/02/28 10:29:32;;;;;;;;;;;;;;;3.37;48.44;100815.94;1087758;54;19943;-81
2023/02/28 10:30:37;;;;;;;;;;;;;;;3.26;48.64;100805.91;1087787;54;19954;-82
2023/02/28 10:31:41;;;;;;;;;;;;;;;3.14;48.89;100806.56;1090090;39;20243;-80
2023/02/28 10:32:50;;;;;;;;;;;;;;;3.27;49.27;100808.50;1087978;54;19951;-81
2023/02/28 10:33:54;;;;;;;;;;;;;;;3.43;48.76;100808.56;1088598;39;20408;-82
2023/02/28 10:34:59;;;;;;;;;;;;;;;3.52;48.23;100823.06;1087807;54;19950;-81
2023/02/28 10:36:07;;;;;;;;;;;;;;;3.53;47.48;100811.56;1087996;54;19943;-82
2023/02/28 10:37:09;;;;;;;;;;;;;;;3.40;47.54;100818.44;1087771;54;19950;-82
2023/02/28 10:38:17;;;;;;;;;;;;;;;3.47;47.79;100811.88;1087800;54;19994;-82
2023/02/28 10:39:37;;;;;;;;;;;;;;;3.56;48.03;100815.81;1087305;54;19954;-82
2023/02/28 10:40:38;;;;;;;;;;;;;;;3.74;47.53;100806.91;1087140;54;19966;-81
2023/02/28 10:41:45;;;;;;;;;;;;;;;3.84;47.13;100804.63;1087721;54;19958;-82
2023/02/28 10:42:54;;;;;;;;;;;;;;;3.84;46.92;100803.78;1090058;39;20437;-81
2023/02/28 10:44:13;;;;;;;;;;;;;;;3.71;46.59;100811.50;1087692;54;19946;-82
2023/02/28 10:45:18;;;;;;;;;;;;;;;3.91;46.93;100805.16;1089738;39;20497;-81
2023/02/28 10:46:25;;;;;;;;;;;;;;;3.86;46.54;100799.25;1087689;54;19946;-81
2023/02/28 10:47:26;;;;;;;;;;;;;;;3.81;46.69;100802.16;1087596;54;19958;-84
2023/02/28 10:48:34;;;;;;;;;;;;;;;3.72;46.60;100805.28;1087734;54;19938;-83
2023/02/28 10:49:40;;;;;;;;;;;;;;;3.84;46.71;100803.78;1087599;54;19947;-81
2023/02/28 10:50:47;;;;;;;;;;;;;;;3.92;46.60;100801.56;1087867;54;19943;-82
2023/02/28 10:51:56;;;;;;;;;;;;;;;3.97;46.43;100807.47;1088145;54;20666;-82
2023/02/28 10:53:07;;;;;;;;;;;;;;;4.24;46.46;100803.41;1089499;46;19966;-81
2023/02/28 10:54:19;;;;;;;;;;;;;;;4.52;46.27;100802.69;1087924;54;19934;-81
2023/02/28 10:55:21;;;;;;;;;;;;;;;4.72;45.32;100798.91;1088937;46;19954;-82
2023/02/28 10:56:27;;;;;;;;;;;;;;;4.62;44.76;100800.38;1086723;54;19946;-79
2023/02/28 10:57:33;;;;;;;;;;;;;;;4.58;44.86;100791.72;1085380;39;20368;-79
2023/02/28 10:58:45;;;;;;;;;;;;;;;4.39;45.36;100789.28;1085508;54;19971;-80
2023/02/28 10:59:53;;;;;;;;;;;;;;;4.20;45.63;100803.56;1086126;54;19946;-80
2023/02/28 11:00:54;;;;;;;;;;;;;;;4.26;46.17;100797.06;1086439;54;19947;-80
2023/02/28 11:01:59;;;;;;;;;;;;;;;4.26;45.95;100796.19;1087081;54;19950;-79
2023/02/28 11:03:00;;;;;;;;;;;;;;;4.34;45.79;100794.00;1092019;31;20497;-80
2023/02/28 11:04:18;;;;;;;;;;;;;;;4.29;45.63;100793.38;1085362;54;19946;-80
2023/02/28 11:05:27;;;;;;;;;;;;;;;4.11;46.13;100798.78;1084827;54;19957;-80
2023/02/28 11:06:33;;;;;;;;;;;;;;;4.04;45.97;100798.25;1084721;54;19946;-79
2023/02/28 11:07:38;;;;;;;;;;;;;;;4.11;46.29;100793.47;1086497;39;20465;-80
2023/02/28 11:08:47;;;;;;;;;;;;;;;4.28;46.00;100794.31;1085020;54;20509;-80
2023/02/28 11:09:49;;;;;;;;;;;;;;;4.20;45.97;100790.31;1084276;54;19973;-79
2023/02/28 11:10:57;;;;;;;;;;;;;;;4.30;45.74;100792.47;1084820;54;20627;-80
2023/02/28 11:12:02;;;;;;;;;;;;;;;4.26;45.66;100788.25;1085073;54;19957;-80
2023/02/28 11:13:19;;;;;;;;;;;;;;;4.25;45.75;100786.59;1085823;54;19950;-81
2023/02/28 11:14:22;;;;;;;;;;;;;;;4.31;45.87;100786.22;1087213;54;19950;-83
2023/02/28 11:15:27;;;;;;;;;;;;;;;4.31;45.73;100778.28;1086504;54;19949;-80
2023/02/28 11:16:39;;;;;;;;;;;;;;;4.16;46.10;100785.28;1085297;54;19947;-80
2023/02/28 11:17:41;;;;;;;;;;;;;;;4.18;46.24;100780.78;1086000;54;19943;-80
2023/02/28 11:18:46;;;;;;;;;;;;;;;4.37;46.14;100783.22;1086255;54;19970;-80
2023/02/28 11:19:50;;;;;;;;;;;;;;;4.26;46.11;100781.19;1085951;54;19946;-81
2023/02/28 11:21:00;;;;;;;;;;;;;;;4.09;45.78;100791.88;1087306;54;19954;-82
2023/02/28 11:22:05;;;;;;;;;;;;;;;3.93;46.16;100778.63;1087592;54;19942;-83
2023/02/28 11:23:12;;;;;;;;;;;;;;;3.80;46.48;100771.34;1087364;54;19966;-81
2023/02/28 11:24:22;;;;;;;;;;;;;;;3.75;46.69;100781.34;1087302;54;20007;-81
2023/02/28 11:25:25;;;;;;;;;;;;;;;3.72;47.21;100781.47;1086810;54;20481;-84
2023/02/28 11:26:39;;;;;;;;;;;;;;;3.77;47.28;100774.19;1087187;54;19950;-81
2023/02/28 11:27:48;;;;;;;;;;;;;;;3.78;47.07;100783.78;1086892;54;19982;-82
2023/02/28 11:29:05;;;;;;;;;;;;;;;3.71;47.29;100790.34;1086954;54;19953;-80
2023/02/28 11:30:22;;;;;;;;;;;;;;;3.73;47.33;100781.41;1087253;39;20459;-80
2023/02/28 11:31:29;;;;;;;;;;;;;;;3.71;47.48;100772.72;1088423;31;20584;-81
2023/02/28 11:32:33;;;;;;;;;;;;;;;3.72;47.42;100773.56;1085839;54;20438;-80
2023/02/28 11:33:44;;;;;;;;;;;;;;;3.77;47.54;100770.66;1084693;54;19956;-81
2023/02/28 11:34:46;;;;;;;;;;;;;;;3.79;47.29;100768.78;1085154;39;20447;-81
2023/02/28 11:35:51;;;;;;;;;;;;;;;3.82;47.26;100774.75;1085801;54;19947;-80
2023/02/28 11:36:53;;;;;;;;;;;;;;;3.74;47.36;100779.63;1086334;54;19946;-81
2023/02/28 11:37:57;;;;;;;;;;;;;;;3.63;47.47;100761.69;1086667;54;19994;-80
2023/02/28 11:39:11;;;;;;;;;;;;;;;3.59;47.99;100776.84;1087199;54;20007;-81
2023/02/28 11:40:13;;;;;;;;;;;;;;;3.60;48.05;100775.06;1087036;54;19955;-80
2023/02/28 11:41:36;;;;;;;;;;;;;;;3.69;47.80;100776.34;1085997;54;19946;-81
2023/02/28 11:42:50;;;;;;;;;;;;;;;3.69;47.68;100768.41;1084727;54;19971;-81
2023/02/28 11:44:15;;;;;;;;;;;;;;;3.56;47.82;100773.50;1086123;54;19947;-82
2023/02/28 11:45:24;;;;;;;;;;;;;;;3.60;48.12;100788.28;1087436;54;19959;-82
2023/02/28 11:46:34;;;;;;;;;;;;;;;3.70;47.93;100781.59;1087929;46;19942;-83
2023/02/28 11:47:47;;;;;;;;;;;;;;;3.62;47.95;100786.44;1087637;54;20639;-81
2023/02/28 11:48:54;;;;;;;;;;;;;;;3.68;48.11;100779.97;1089661;46;19945;-82
2023/02/28 11:50:06;;;;;;;;;;;;;;;3.77;47.87;100779.47;1087242;54;19942;-81
2023/02/28 11:51:15;;;;;;;;;;;;;;;3.81;47.65;100775.69;1087306;54;19942;-83
2023/02/28 11:52:23;;;;;;;;;;;;;;;3.73;47.69;100777.91;1087538;54;19962;-83
2023/02/28 11:53:35;;;;;;;;;;;;;;;3.73;47.92;100769.97;1087472;54;19942;-82
2023/02/28 11:54:52;;;;;;;;;;;;;;;3.84;47.74;100772.91;1087388;54;19959;-83
2023/02/28 11:56:01;;;;;;;;;;;;;;;3.93;47.75;100763.59;1087100;54;19942;-81
2023/02/28 11:57:11;;;;;;;;;;;;;;;3.89;47.04;100767.34;1087375;54;19943;-83
2023/02/28 11:58:24;;;;;;;;;;;;;;;3.83;47.14;100763.25;1087294;54;19950;-81
2023/02/28 11:59:41;;;;;;;;;;;;;;;3.84;47.09;100764.97;1087466;54;19943;-84
2023/02/28 12:00:56;;;;;;;;;;;;;;;3.86;47.50;100752.50;1087563;54;20043;-83
2023/02/28 12:02:09;;;;;;;;;;;;;;;3.96;47.27;100759.94;1087317;54;19945;-80
2023/02/28 12:03:18;;;;;;;;;;;;;;;4.00;47.25;100758.81;1087113;54;20318;-82
2023/02/28 12:04:28;;;;;;;;;;;;;;;4.01;47.16;100763.16;1087722;54;19994;-83
2023/02/28 12:05:35;;;;;;;;;;;;;;;4.01;46.91;100760.53;1087506;54;19942;-83
2023/02/28 12:06:42;;;;;;;;;;;;;;;3.95;47.45;100756.44;1092175;39;20374;-83
2023/02/28 12:07:50;;;;;;;;;;;;;;;4.08;47.36;100748.66;1087583;54;19934;-82
2023/02/28 12:09:06;;;;;;;;;;;;;;;4.22;47.20;100764.63;1087800;46;19942;-81
2023/02/28 12:10:21;;;;;;;;;;;;;;;4.41;46.81;100768.00;1088219;46;19954;-82
2023/02/28 12:11:29;;;;;;;;;;;;;;;4.41;46.02;100757.41;1087377;54;20685;-81
2023/02/28 12:12:37;;;;;;;;;;;;;;;4.41;45.69;100768.00;1087688;54;19954;-81
2023/02/28 12:13:49;;;;;;;;;;;;;;;4.45;46.07;100764.25;1087502;54;20643;-81
2023/02/28 12:14:57;;;;;;;;;;;;;;;4.41;46.16;100758.28;1087421;54;19939;-81
2023/02/28 12:16:25;;;;;;;;;;;;;;;4.35;46.27;100758.63;1088792;46;19946;-82
2023/02/28 12:17:38;;;;;;;;;;;;;;;4.41;46.17;100757.41;1087150;46;20591;-81
2023/02/28 12:18:48;;;;;;;;;;;;;;;4.51;46.41;100756.81;1087041;47;19947;-80
2023/02/28 12:19:58;;;;;;;;;;;;;;;4.55;45.90;100762.78;1085831;54;19942;-80
2023/02/28 12:21:08;;;;;;;;;;;;;;;4.56;45.80;100759.22;1086580;54;19942;-81
2023/02/28 12:22:17;;;;;;;;;;;;;;;4.42;45.46;100752.06;1086504;46;19927;-80
2023/02/28 12:23:36;;;;;;;;;;;;;;;4.34;45.60;100751.66;1085769;46;20076;-80
2023/02/28 12:24:43;;;;;;;;;;;;;;;4.32;46.09;100745.59;1085634;54;19962;-81
2023/02/28 12:25:58;;;;;;;;;;;;;;;4.41;45.79;100757.41;1087686;54;19984;-81
2023/02/28 12:27:02;;;;;;;;;;;;;;;4.33;45.80;100749.94;1087346;54;19942;-81
2023/02/28 12:28:06;;;;;;;;;;;;;;;4.27;45.75;100745.84;1087390;54;20457;-82
2023/02/28 12:29:15;;;;;;;;;;;;;;;4.20;46.08;100740.03;1087365;54;19955;-81
2023/02/28 12:30:22;;;;;;;;;;;;;;;4.20;46.08;100750.63;1087247;54;19942;-80
2023/02/28 12:31:28;;;;;;;;;;;;;;;4.29;46.17;100748.38;1087188;54;19950;-81
2023/02/28 12:32:34;;;;;;;;;;;;;;;4.37;46.02;100751.44;1087406;39;20456;-81
2023/02/28 12:33:39;;;;;;;;;;;;;;;4.46;45.75;100755.38;1086662;54;19958;-80
2023/02/28 12:34:45;;;;;;;;;;;;;;;4.46;45.60;100745.63;1089530;39;20474;-82
2023/02/28 12:35:48;;;;;;;;;;;;;;;4.50;45.57;100747.16;1085695;54;19947;-81
2023/02/28 12:36:54;;;;;;;;;;;;;;;4.50;45.49;100738.34;1087606;54;19943;-81
2023/02/28 12:37:57;;;;;;;;;;;;;;;4.51;45.53;100746.22;1087036;54;20812;-82
2023/02/28 12:39:03;;;;;;;;;;;;;;;4.56;45.40;100737.16;1087332;54;20014;-81
2023/02/28 12:40:06;;;;;;;;;;;;;;;4.52;45.37;100742.66;1087067;54;19950;-79
2023/02/28 12:41:15;;;;;;;;;;;;;;;4.60;45.44;100751.94;1086568;54;19990;-82
2023/02/28 12:42:19;;;;;;;;;;;;;;;4.69;45.27;100740.81;1086092;54;20516;-81
2023/02/28 12:43:25;;;;;;;;;;;;;;;4.72;45.14;100734.47;1087121;39;20341;-80
2023/02/28 12:44:31;;;;;;;;;;;;;;;4.60;45.37;100744.84;1086456;54;19942;-80
2023/02/28 12:45:42;;;;;;;;;;;;;;;4.57;45.54;100742.38;1087249;39;20751;-81
2023/02/28 12:46:44;;;;;;;;;;;;;;;4.61;45.44;100740.41;1085780;54;19946;-79
2023/02/28 12:47:51;;;;;;;;;;;;;;;4.67;45.72;100740.03;1085008;54;19954;-81
2023/02/28 12:48:55;;;;;;;;;;;;;;;4.74;45.16;100722.00;1085521;54;19974;-79
2023/02/28 12:50:01;;;;;;;;;;;;;;;4.67;45.27;100742.69;1086232;54;20027;-80
2023/02/28 12:51:02;;;;;;;;;;;;;;;4.72;45.25;100730.03;1085563;54;19947;-79
2023/02/28 12:52:10;;;;;;;;;;;;;;;4.71;45.53;100738.06;1086884;54;19949;-82
2023/02/28 12:53:15;;;;;;;;;;;;;;;4.73;45.38;100731.72;1087082;54;20577;-81
2023/02/28 12:54:22;;;;;;;;;;;;;;;4.71;45.35;100733.63;1087065;54;19962;-80
2023/02/28 12:55:32;;;;;;;;;;;;;;;4.71;45.41;100735.41;1087371;46;19975;-80
2023/02/28 12:56:41;;;;;;;;;;;;;;;4.77;45.28;100727.97;1088404;39;20451;-80
2023/02/28 12:57:51;;;;;;;;;;;;;;;4.73;45.43;100726.41;1086525;54;20283;-80
2023/02/28 12:58:54;;;;;;;;;;;;;;;4.75;44.75;100726.34;1087216;54;19942;-80
2023/02/28 12:59:59;;;;;;;;;;;;;;;4.70;45.09;100718.69;1086788;54;19954;-81
2023/02/28 13:01:15;;;;;;;;;;;;;;;4.63;45.08;100714.69;1085860;54;19951;-82
2023/02/28 13:02:25;;;;;;;;;;;;;;;4.55;45.43;100719.56;1085249;54;19969;-81
2023/02/28 13:03:40;;;;;;;;;;;;;;;4.57;45.50;100721.19;1086646;54;19950;-79
2023/02/28 13:05:01;;;;;;;;;;;;;;;4.58;45.39;100729.97;1085852;54;19950;-80
2023/02/28 13:06:10;;;;;;;;;;;;;;;4.53;45.74;100728.44;1084512;54;19950;-78
2023/02/28 13:07:26;;;;;;;;;;;;;;;4.51;45.50;100719.75;1085520;54;19946;-80
2023/02/28 13:08:47;;;;;;;;;;;;;;;4.69;45.51;100728.41;1086078;54;19957;-80
2023/02/28 13:09:52;;;;;;;;;;;;;;;4.76;45.29;100722.75;1084659;54;19971;-79
2023/02/28 13:10:56;;;;;;;;;;;;;;;4.75;45.55;100724.53;1088939;39;20498;-81
2023/02/28 13:12:03;;;;;;;;;;;;;;;4.78;45.28;100718.19;1086898;54;19977;-80
2023/02/28 13:13:04;;;;;;;;;;;;;;;4.74;44.90;100720.19;1087842;54;19942;-81
2023/02/28 13:14:19;;;;;;;;;;;;;;;4.73;44.97;100721.13;1088693;39;20363;-81
2023/02/28 13:15:24;;;;;;;;;;;;;;;4.73;45.22;100723.78;1088113;39;20535;-81
2023/02/28 13:16:25;;;;;;;;;;;;;;;4.65;44.88;100718.06;1087689;54;19943;-80
2023/02/28 13:17:29;;;;;;;;;;;;;;;4.60;45.12;100722.81;1086991;39;20342;-81
2023/02/28 13:18:32;;;;;;;;;;;;;;;4.59;45.39;100721.09;1085121;54;19962;-80
2023/02/28 13:19:37;;;;;;;;;;;;;;;4.69;45.32;100724.91;1086042;54;19946;-80
2023/02/28 13:20:49;;;;;;;;;;;;;;;4.79;44.87;100720.78;1084622;54;19946;-79
2023/02/28 13:21:58;;;;;;;;;;;;;;;4.70;45.10;100718.69;1085290;54;19959;-80
2023/02/28 13:23:01;;;;;;;;;;;;;;;4.77;44.99;100722.66;1086794;39;20338;-80
2023/02/28 13:24:05;;;;;;;;;;;;;;;4.81;45.15;100725.97;1085372;54;19977;-80
2023/02/28 13:25:24;;;;;;;;;;;;;;;4.82;44.96;100717.94;1085034;54;19981;-80
2023/02/28 13:26:43;;;;;;;;;;;;;;;4.82;44.65;100725.03;1087673;39;20416;-79
2023/02/28 13:27:54;;;;;;;;;;;;;;;4.81;45.15;100718.91;1087046;54;20508;-81
2023/02/28 13:28:59;;;;;;;;;;;;;;;4.91;45.15;100715.69;1087116;54;19963;-81
2023/02/28 13:30:03;;;;;;;;;;;;;;;4.97;45.23;100718.81;1086926;54;19951;-81
2023/02/28 13:31:05;;;;;;;;;;;;;;;5.02;44.67;100712.41;1087147;54;19950;-80
2023/02/28 13:32:23;;;;;;;;;;;;;;;4.91;44.68;100713.06;1086376;54;19951;-79
2023/02/28 13:33:28;;;;;;;;;;;;;;;4.90;44.62;100716.63;1086961;54;19958;-81
2023/02/28 13:34:30;;;;;;;;;;;;;;;4.90;45.07;100711.34;1087250;54;19943;-82
2023/02/28 13:35:39;;;;;;;;;;;;;;;4.97;44.49;100707.38;1087072;54;19966;-81
2023/02/28 13:36:42;;;;;;;;;;;;;;;4.80;44.73;100726.91;1086941;54;19949;-80
2023/02/28 13:37:46;;;;;;;;;;;;;;;4.85;44.58;100714.28;1086236;54;19957;-79
2023/02/28 13:38:51;;;;;;;;;;;;;;;4.87;44.66;100708.88;1086587;54;20002;-79
2023/02/28 13:39:53;;;;;;;;;;;;;;;4.91;44.90;100713.06;1087725;47;19943;-79
2023/02/28 13:41:20;;;;;;;;;;;;;;;4.94;44.82;100713.72;1086588;47;19943;-81
2023/02/28 13:42:46;;;;;;;;;;;;;;;4.92;44.63;100706.78;1085868;54;19946;-82
2023/02/28 13:44:06;;;;;;;;;;;;;;;4.93;44.67;100705.84;1085797;54;19962;-80
2023/02/28 13:45:27;;;;;;;;;;;;;;;4.93;44.75;100716.44;1085693;54;20524;-79
2023/02/28 13:46:29;;;;;;;;;;;;;;;4.89;44.70;100710.47;1086258;54;20508;-83
2023/02/28 13:47:34;;;;;;;;;;;;;;;4.89;44.64;100712.28;1086865;54;19950;-83
2023/02/28 13:48:39;;;;;;;;;;;;;;;4.88;44.77;100721.16;1087129;54;19954;-80
2023/02/28 13:49:43;;;;;;;;;;;;;;;4.91;44.42;100719.19;1087349;54;19946;-81
2023/02/28 13:50:46;;;;;;;;;;;;;;;4.99;44.60;100713.44;1087215;54;20588;-81
2023/02/28 13:51:49;;;;;;;;;;;;;;;5.02;44.45;100705.28;1086663;54;19958;-81
2023/02/28 13:53:00;;;;;;;;;;;;;;;4.93;44.58;100712.00;1086720;54;20002;-81
2023/02/28 13:54:05;;;;;;;;;;;;;;;4.91;44.55;100705.09;1087132;54;19939;-81
2023/02/28 13:55:24;;;;;;;;;;;;;;;4.97;44.61;100710.03;1087520;54;19942;-83
2023/02/28 13:56:32;;;;;;;;;;;;;;;4.88;44.58;100707.94;1087065;54;19958;-81
2023/02/28 13:57:43;;;;;;;;;;;;;;;4.91;44.72;100707.75;1087550;54;19963;-81
2023/02/28 13:58:55;;;;;;;;;;;;;;;4.94;44.31;100707.53;1088022;47;19949;-82
2023/02/28 14:00:12;;;;;;;;;;;;;;;4.90;44.38;100708.69;1087464;54;20567;-81
2023/02/28 14:02:40;;;;;;;;;;;;;;;5.03;43.88;100714.09;1087168;54;19942;-79
2023/02/28 14:04:01;;;;;;;;;;;;;;;5.04;43.88;100718.47;1087457;54;19974;-81
2023/02/28 14:05:05;;;;;;;;;;;;;;;5.00;44.29;100712.50;1089299;47;19949;-81
2023/02/28 14:06:24;;;;;;;;;;;;;;;5.03;44.20;100706.16;1087406;54;19943;-80
2023/02/28 14:07:26;;;;;;;;;;;;;;;5.13;44.32;100716.09;1087321;54;20562;-80
2023/02/28 14:08:30;;;;;;;;;;;;;;;5.17;43.78;100713.25;1087535;54;19949;-82
2023/02/28 14:09:36;;;;;;;;;;;;;;;5.09;43.85;100709.28;1087459;54;19954;-81
2023/02/28 14:10:44;;;;;;;;;;;;;;;5.04;44.10;100714.00;1093702;39;20551;-81
2023/02/28 14:11:48;;;;;;;;;;;;;;;5.00;44.21;100712.50;1087488;54;19965;-82
2023/02/28 14:13:09;;;;;;;;;;;;;;;4.94;44.46;100711.06;1086645;54;19973;-79
2023/02/28 14:14:27;;;;;;;;;;;;;;;4.93;44.42;100712.00;1086622;54;19942;-83
2023/02/28 14:15:43;;;;;;;;;;;;;;;4.93;44.65;100706.72;1087181;54;19951;-81
2023/02/28 14:16:54;;;;;;;;;;;;;;;4.95;44.59;100709.25;1087114;54;19950;-81
2023/02/28 14:18:00;;;;;;;;;;;;;;;5.01;44.66;100700.91;1087278;54;19953;-80
2023/02/28 14:19:06;;;;;;;;;;;;;;;5.09;44.88;100704.00;1087176;54;19942;-80
2023/02/28 14:20:16;;;;;;;;;;;;;;;5.17;44.54;100703.50;1087331;54;19951;-82
2023/02/28 14:21:26;;;;;;;;;;;;;;;5.20;44.68;100705.09;1087252;54;19957;-80
2023/02/28 14:22:43;;;;;;;;;;;;;;;5.21;44.57;100696.22;1087182;54;19942;-80
2023/02/28 14:23:59;;;;;;;;;;;;;;;5.27;44.38;100699.34;1087113;54;19951;-80
2023/02/28 14:25:12;;;;;;;;;;;;;;;5.27;44.43;100709.09;1087590;54;19978;-81
2023/02/28 14:26:29;;;;;;;;;;;;;;;5.33;44.47;100708.72;1087883;54;19942;-80
2023/02/28 14:27:37;;;;;;;;;;;;;;;5.37;44.45;100694.34;1087995;54;19943;-80
2023/02/28 14:29:03;;;;;;;;;;;;;;;5.40;43.95;100709.19;1087827;54;19991;-83
2023/02/28 14:30:21;;;;;;;;;;;;;;;5.44;43.96;100706.25;1087864;54;19973;-80
2023/02/28 14:31:27;;;;;;;;;;;;;;;5.44;43.75;100711.56;1087796;54;19942;-81
2023/02/28 14:32:38;;;;;;;;;;;;;;;5.47;43.56;100699.91;1087765;54;19938;-80
2023/02/28 14:33:47;;;;;;;;;;;;;;;5.49;43.63;100708.63;1087704;54;19998;-81
2023/02/28 14:34:54;;;;;;;;;;;;;;;5.49;43.40;100707.75;1087682;54;19966;-80
2023/02/28 14:36:08;;;;;;;;;;;;;;;5.47;43.45;100700.78;1087688;54;19963;-80
2023/02/28 14:37:16;;;;;;;;;;;;;;;5.40;43.66;100703.91;1087796;54;19942;-81
2023/02/28 14:38:21;;;;;;;;;;;;;;;5.45;43.09;100705.31;1088181;39;20889;-81
2023/02/28 14:39:30;;;;;;;;;;;;;;;5.36;43.20;100702.38;1087819;54;19950;-80
2023/02/28 14:40:33;;;;;;;;;;;;;;;5.28;43.61;100698.41;1087795;54;19954;-82
2023/02/28 14:43:00;;;;;;;;;;;;;;;5.35;43.50;100693.56;1087238;54;19950;-80
2023/02/28 14:44:03;;;;;;;;;;;;;;;5.29;43.63;100701.91;1085989;54;20430;-80
2023/02/28 14:45:08;;;;;;;;;;;;;;;5.29;43.71;100700.09;1086604;54;20028;-80
2023/02/28 14:46:18;;;;;;;;;;;;;;;5.31;43.26;100692.91;1086809;54;19979;-81
2023/02/28 14:47:26;;;;;;;;;;;;;;;5.35;43.06;100696.22;1086651;54;19951;-83
2023/02/28 14:48:33;;;;;;;;;;;;;;;5.33;43.44;100695.47;1086969;54;19950;-82
2023/02/28 14:49:49;;;;;;;;;;;;;;;;;;;;;
2023/02/28 14:50:52;;;;;;;;;;;;;;;5.37;43.59;100694.34;1087335;54;19942;-79
2023/02/28 14:52:05;;;;;;;;;;;;;;;5.30;43.25;100696.50;1087231;54;19951;-80
2023/02/28 14:53:13;;;;;;;;;;;;;;;5.42;43.45;100697.53;1087126;54;19947;-80
2023/02/28 14:54:18;;;;;;;;;;;;;;;5.53;43.18;100699.50;1087026;54;19949;-81
2023/02/28 14:55:20;;;;;;;;;;;;;;;5.52;42.75;100697.84;1087195;54;20516;-79
2023/02/28 14:56:25;;;;;;;;;;;;;;;5.52;43.06;100696.97;1087346;54;19942;-79
2023/02/28 14:57:39;;;;;;;;;;;;;;;5.49;43.06;100699.78;1087612;46;19942;-81
2023/02/28 14:58:40;;;;;;;;;;;;;;;5.44;43.07;100693.00;1087603;46;20009;-80
2023/02/28 14:59:45;;;;;;;;;;;;;;;5.46;43.20;100699.06;1087565;54;19956;-79
2023/02/28 15:01:04;;;;;;;;;;;;;;;5.41;43.38;100698.47;1087693;54;19943;-79
2023/02/28 15:02:16;;;;;;;;;;;;;;;5.47;43.30;100698.13;1086915;54;19993;-78
2023/02/28 15:03:21;;;;;;;;;;;;;;;5.43;43.25;100699.25;1087590;54;19970;-82
2023/02/28 15:04:27;;;;;;;;;;;;;;;5.42;43.59;100696.69;1087527;54;19966;-79
2023/02/28 15:05:32;;;;;;;;;;;;;;;5.53;43.56;100696.03;1087386;54;19962;-80
2023/02/28 15:06:33;;;;;;;;;;;;;;;5.52;43.51;100697.84;1088268;46;19949;-79
2023/02/28 15:09:18;;;;;;;;;;;;;;;5.62;43.54;100696.28;1087410;54;19946;-80
2023/02/28 15:10:31;;;;;;;;;;;;;;;5.69;43.16;100699.41;1087548;54;19998;-80
2023/02/28 15:11:35;;;;;;;;;;;;;;;5.67;43.09;100706.59;1088144;46;19953;-80
2023/02/28 15:12:48;;;;;;;;;;;;;;;5.63;43.33;100702.44;1087469;54;19950;-79
2023/02/28 15:13:53;;;;;;;;;;;;;;;5.52;43.33;100704.91;1087633;54;19942;-80
2023/02/28 15:14:58;;;;;;;;;;;;;;;5.46;43.31;100701.72;1087470;54;19943;-82
2023/02/28 15:17:30;;;;;;;;;;;;;;;5.38;43.38;100705.78;1087144;54;19971;-80
2023/02/28 15:20:14;;;;;;;;;;;;;;;5.47;43.27;100711.38;1087150;54;19989;-80
2023/02/28 15:21:22;;;;;;;;;;;;;;;5.47;43.45;100700.78;1087081;54;20310;-78